KGUP/GUP METAR and TAF weather

Enter ICAO airport designator
Station Type Date Time Source
KGUP METAR 2018/12/15 03:53 UTC NOAA

KGUP 150353Z AUTO 00000KT 10SM CLR M05/M13 A3035 RMK AO2 SLP346 T10501128


Station Type Date Time Source
KGUP Decoded METAR 2018/12/15 03:53 UTC NOAA

GALLUP MUNICIPAL AIRPORT, NM, United States (KGUP) 35-31N 108-47W 1971M
Dec 14, 2018 - 10:53 PM EST / 2018.12.15 0353 UTC
Wind: Calm:0
Visibility: 10 mile(s):0
Sky conditions: clear
Temperature: 23.0 F (-5.0 C)
Dew Point: 9.0 F (-12.8 C)
Relative Humidity: 54%
Pressure (altimeter): 30.35 in. Hg (1027 hPa)
ob: KGUP 150353Z AUTO 00000KT 10SM CLR M05/M13 A3035 RMK AO2 SLP346 T10501128
cycle: 4

Station Type Date Time Source
KGUP TAF 2018/12/14 18:24 UTC NOAA

TAF KGUP 141721Z 1418/1518 VRB04KT P6SM SKC
FM150100 00000KT P6SM SCT150 BKN250


Example: see airport list